Weather observations for the past three days for
Gonzales Roger M. Dreyer Memorial
Imperial (Metric)
Date Time (cdt) Wind (mph) Vis. (mi.) Weather Sky Cond. Temperature (ºF) Relative Humidity Wind Chill (°F) Heat Index (°F) Pressure Precipitation (in)
Air Dwpt 6 hour altimeter (in) sea level (mb) 1 hr 3 hr 6 hr
Max. Min.
08 07:15 NE 5 0.00 Overcast OVC010 63.9 59.5 86% 29.91 0.0
08 06:55 N 5 0.00 Overcast OVC012 63.7 59.9 65.3 63.7 88% 29.92 0.0
08 06:35 N 5 0.00 Overcast OVC012 63.9 59.9 87% 29.93 0.0
08 06:15 N 5 0.00 Overcast BKN010 OVC025 64.6 59.2 83% 29.94 0.0
08 05:55 Calm 0.00 Overcast BKN010 OVC025 64.8 58.3 80% 29.92 0.0
08 05:35 Calm 0.00 Overcast OVC012 64.8 57.7 78% 29.92 0.0
08 05:15 N 3 0.00 Overcast OVC014 64.6 58.1 80% 29.93 0.0
08 04:55 N 6 0.00 Overcast OVC014 64.6 58.1 80% 29.95 0.0
08 04:35 N 5 0.00 Overcast OVC016 64.6 57.9 79% 29.94 0.0
08 04:15 NE 6 0.00 Overcast OVC016 64.4 57.2 78% 29.91 0.0
08 03:55 N 5 0.00 Overcast OVC016 64.4 57.4 78% 29.92 0.0
08 03:35 N 6 0.00 Overcast OVC020 64.4 57.2 78% 29.93 0.0
08 03:15 N 5 0.00 Overcast OVC020 64.4 57.2 78% 29.93 0.0
08 02:55 N 3 0.00 Overcast OVC020 64.8 57.2 77% 29.92 0.0
08 02:35 Calm 0.00 Overcast OVC022 64.8 57 76% 29.93 0.0
08 02:15 N 5 0.00 Overcast OVC022 64.9 57 76% 29.94 0.0
08 01:55 NE 3 0.00 Overcast OVC026 64.8 56.7 75% 29.95 0.0
08 01:35 N 3 0.00 Overcast OVC028 64.9 56.8 75% 29.96 0.0
08 01:15 NW 5 0.00 Overcast OVC028 65.1 57 75% 29.98 0.0
08 00:55 NW 5 0.00 Overcast OVC026 65.3 57.2 69.4 65.1 75% 29.98 0.0
08 00:35 N 5 0.00 Overcast OVC024 65.3 57 75% 29.95 0.0
08 00:15 NE 5 0.00 Overcast OVC024 65.3 56.8 74% 29.93 0.0
07 23:55 NE 3 0.00 Overcast BKN026 OVC037 65.3 57.2 75% 29.94 0.0
07 23:35 N 6 0.00 Overcast SCT026 OVC037 65.3 57.6 76% 29.95 0.0
07 23:15 N 6 0.00 Overcast BKN026 OVC037 65.3 57.6 76% 29.96 0.0
07 22:55 N 7 0.00 Mostly Cloudy BKN026 65.7 58.3 77% 29.98 0.0
07 22:35 N 5 0.00 Partly Cloudy SCT026 65.1 58.5 79% 29.97 0.0
07 22:15 N 3 0.00 Fair CLR 65.7 58.3 77% 29.95 0.0
07 21:55 N 3 0.00 Fair CLR 66.6 57.4 72% 29.95 0.0
07 21:35 NE 3 0.00 Fair CLR 67.3 56.8 69% 29.92 0.0
07 21:15 E 7 0.00 Fair CLR 67.6 57.2 69% 29.92 0.0
07 20:55 E 7 0.00 Fair CLR 67.6 56.7 68% 29.9 0.0
07 20:35 E 8 0.00 Partly Cloudy SCT050 68 57 68% 29.91 0.0
07 20:15 NE 6 0.00 Mostly Cloudy BKN050 68.7 57 66% 29.94 0.0
07 19:55 NE 7 0.00 Overcast OVC046 68.9 57 66% 29.95 0.0
07 19:35 N 8 0.00 Overcast OVC042 69.1 57.2 66% 29.96 0.0
07 19:15 NE 6 0.00 Overcast OVC040 69.3 57.2 66% 29.95 0.0
07 18:55 NE 8 0.00 Mostly Cloudy BKN038 69.6 57.4 73.2 67.8 65% 29.97 0.0
07 18:35 NE 7 0.00 Fair CLR 69.8 57.7 66% 29.96 0.0
07 18:15 NE 7 0.00 Partly Cloudy SCT029 69.1 57.4 66% 29.96 0.0
07 17:55 N 12 G 16 0.00 Partly Cloudy SCT031 69.1 57.9 68% 29.97 0.0
07 17:35 N 12 G 18 0.00 Partly Cloudy SCT031 SCT120 69.4 58.1 67% 29.97 0.0
07 17:15 N 13 G 16 0.00 Mostly Cloudy SCT031 BKN120 70.2 58.5 67% 29.96 0.0
07 16:55 N 9 0.00 Mostly Cloudy BKN031 BKN120 71.4 59.4 66% 29.97 0.0
07 16:35 N 9 G 16 0.00 Partly Cloudy SCT031 SCT044 SCT120 72.5 60.3 66% 29.96 0.0
07 16:15 NE 10 G 17 0.00 Partly Cloudy SCT120 73 60.3 64% 29.96 0.0
07 15:55 N 8 G 16 0.00 Partly Cloudy SCT120 72.7 60.1 65% 29.96 0.0
07 15:35 N 9 G 16 0.00 Partly Cloudy SCT120 72.1 59.9 66% 29.96 0.0
07 15:15 NE 7 0.00 Fair CLR 72.1 60.1 66% 29.96 0.0
07 14:55 N 8 0.00 Partly Cloudy SCT031 SCT045 72 59.9 66% 29.98 0.0
07 14:35 N 9 0.00 Overcast BKN031 OVC045 72.3 60.3 66% 29.99 0.0
07 14:15 N 7 0.00 Overcast SCT031 OVC045 71.2 60.1 68% 30 0.0
07 13:55 NE 8 0.00 Partly Cloudy SCT045 72 59.9 66% 30 0.0
07 13:35 NE 7 0.00 Fair CLR 70 58.8 68% 30 0.0
07 13:15 NE 10 0.00 Partly Cloudy SCT026 SCT055 69.6 58.3 67% 30.01 0.0
07 12:55 NE 12 G 20 0.00 Mostly Cloudy BKN028 BKN055 67.6 57.6 68.2 61.7 70% 30.02 0.0
07 12:35 N 12 0.00 Overcast OVC028 68 58.3 71% 30.04 0.0
07 12:15 NE 12 0.00 Overcast OVC028 66.7 57.7 73% 30.05 0.0
07 11:55 N 12 G 16 0.00 Overcast OVC026 66.4 57.4 73% 30.04 0.0
07 11:35 N 13 G 17 0.00 Overcast SCT019 OVC026 65.5 57.2 75% 30.05 0.0
07 11:15 N 15 G 20 0.00 Overcast BKN017 OVC026 66.4 58.1 75% 30.04 0.0
07 10:55 N 16 G 22 0.00 Overcast BKN017 OVC026 65.5 57.6 76% 30.03 0.0
07 10:35 N 13 G 17 0.00 Overcast BKN017 OVC026 64 57.4 79% 30.04 0.0
07 10:15 N 10 0.00 Overcast OVC015 62.6 56.5 81% 30.04 0.0
07 09:55 N 9 G 16 0.00 Overcast OVC013 62.2 56.8 83% 30.04 0.0
07 09:35 N 9 G 18 0.00 Overcast OVC011 62.6 57.6 84% 30.03 0.0
07 09:15 N 14 G 20 0.00 Overcast OVC011 62.1 57.7 86% 30.02 0.0
07 08:55 N 13 G 23 0.00 Overcast OVC011 62.6 57.7 84% 30.01 0.0
07 08:35 N 12 G 24 0.00 Overcast OVC011 62.1 57.6 85% 30.02 0.0
07 08:15 N 14 G 18 0.00 Overcast OVC011 61.7 57.6 86% 30.03 0.0
07 07:55 N 6 0.00 Overcast OVC011 61.7 58.1 88% 30.05 0.0
07 07:35 N 13 G 20 0.00 Overcast OVC011 61.7 57.9 88% 30 0.0
07 07:15 N 12 G 20 0.00 Overcast OVC013 62.1 57.9 86% 29.99 0.0
07 06:55 N 9 G 16 0.00 Overcast OVC015 62.6 57.7 64.8 62.6 84% 30 0.0
07 06:35 N 8 G 16 0.00 Overcast OVC017 63 57.9 84% 30.01 0.0
07 06:15 N 10 0.00 Overcast OVC017 63.5 58.3 83% 29.97 0.0
07 05:55 N 10 G 17 0.00 Overcast OVC017 63.7 58.3 83% 29.96 0.0
07 05:35 N 14 G 18 0.00 Overcast OVC017 63.7 58.1 82% 29.96 0.0
07 05:15 N 12 0.00 Overcast OVC017 63.9 58.1 82% 29.96 0.0
07 04:55 N 9 0.00 Overcast OVC019 63.9 58.1 82% 29.96 0.0
07 04:35 N 9 0.00 Overcast OVC019 64 58.1 81% 29.96 0.0
07 04:15 N 8 0.00 Overcast OVC019 64.4 58.1 80% 29.96 0.0
07 03:55 N 10 0.00 Overcast OVC019 64.4 58.1 80% 29.95 0.0
07 03:35 N 8 0.00 Overcast OVC019 64.4 58.1 80% 29.95 0.0
07 03:15 N 7 0.00 Overcast OVC019 64.4 58.1 80% 29.96 0.0
07 02:55 N 7 0.00 Overcast OVC019 64.4 57.9 80% 29.95 0.0
07 02:15 N 5 0.00 Overcast OVC019 64.6 58.1 80% 29.96 0.0
07 01:55 N 9 0.00 Overcast OVC021 64.6 58.1 80% 29.96 0.0
07 01:35 N 8 0.00 Overcast OVC021 64.8 58.5 80% 29.96 0.0
07 01:15 N 7 0.00 Overcast OVC021 64.8 58.5 80% 29.95 0.0
07 00:55 NE 8 0.00 Overcast OVC021 64.8 58.3 70.3 64.4 80% 29.95 0.0
07 00:35 N 9 G 17 0.00 Overcast OVC021 64.8 58.3 80% 29.95 0.0
07 00:15 N 7 0.00 Overcast OVC021 64.9 58.3 79% 29.96 0.0
06 23:55 N 9 0.00 Overcast OVC021 65.1 58.5 79% 29.96 0.0
06 23:35 N 9 0.00 Overcast OVC021 65.3 58.6 79% 29.94 0.0
06 23:15 N 7 0.00 Overcast OVC021 65.1 59 81% 29.93 0.0
06 22:35 N 8 0.00 Overcast OVC021 64.8 58.6 81% 29.93 0.0
06 22:15 N 10 0.00 Overcast OVC021 64.8 58.5 80% 29.93 0.0
06 21:55 N 9 0.00 Mostly Cloudy BKN021 BKN036 64.8 58.5 80% 29.92 0.0
06 21:35 N 8 0.00 Partly Cloudy SCT036 64.6 58.6 81% 29.91 0.0
06 21:15 N 8 G 17 0.00 Fair CLR 64.6 58.5 81% 29.9 0.0
06 20:55 N 8 0.00 Fair CLR 64.9 59 81% 29.89 0.0
06 20:35 N 10 G 18 0.00 Fair CLR 65.3 59 80% 29.88 0.0
06 20:15 N 12 G 16 0.00 Fair CLR 65.8 59 79% 29.87 0.0
06 19:55 N 10 G 18 0.00 Fair CLR 66.4 59.2 78% 29.87 0.0
06 19:35 N 14 G 20 0.00 Fair CLR 67.6 59.9 76% 29.84 0.0
06 19:15 N 10 G 18 0.00 Fair CLR 68.9 60.4 75% 29.84 0.0
06 18:55 N 13 G 21 0.00 Fair CLR 70.5 61.7 87.6 70.5 74% 29.84 0.0
06 18:35 N 14 G 20 0.00 Fair CLR 72 63 73% 29.83 0.0
06 18:15 N 13 G 21 0.00 Fair CLR 73.8 64.4 73% 29.82 0.0
06 17:55 N 12 G 21 0.00 Fair CLR 75.6 65.8 72% 77 29.82 0.0
06 17:35 N 13 G 21 0.00 Fair CLR 77.9 67.8 71% 80 29.81 0.0
06 17:15 N 10 G 20 0.00 Partly Cloudy SCT026 SCT034 SCT049 78.8 69.4 73% 81 29.79 0.0
06 16:55 N 12 G 17 0.00 Overcast BKN028 OVC034 80.6 71.4 74% 85 29.79 0.0
06 16:35 N 13 G 17 0.00 Overcast OVC032 81.5 72 73% 86 29.79 0.0
06 16:15 N 10 G 18 0.00 Overcast BKN029 BKN047 OVC060 82.8 72.9 72% 88 29.79 0.0
06 15:55 N 5 0.00 Mostly Cloudy SCT033 SCT048 BKN055 84.2 74.7 73% 92 29.79 0.0
06 15:35 N 6 0.00 Mostly Cloudy BKN032 BKN039 BKN049 85.3 75.4 72% 94 29.79 0.0
06 15:15 N 5 0.00 Fair CLR 86.4 74.1 67% 95 29.79 0.0
06 14:55 Calm 0.00 Partly Cloudy SCT026 SCT042 SCT065 86.7 74.5 67% 95 29.79 0.0
06 14:35 Calm 0.00 Mostly Cloudy SCT024 BKN042 85.3 74.3 70% 93 29.79 0.0
06 14:15 E 6 0.00 Partly Cloudy SCT024 86.5 75.4 69% 96 29.8 0.0
06 13:55 NE 6 0.00 Partly Cloudy SCT065 85.1 74.5 71% 93 29.81 0.0
06 13:35 NE 7 0.00 Overcast OVC065 83.7 75 75% 91 29.81 0.0
06 13:15 NE 5 0.00 Overcast BKN042 OVC065 81.9 75 80% 88 29.82 0.0
06 12:55 NE 5 0.00 Overcast SCT020 SCT033 OVC040 81.7 75 83.1 74.7 80% 88 29.83 0.0
06 12:35 Calm 0.00 Mostly Cloudy SCT020 SCT024 BKN032 81.7 74.5 79% 88 29.83 0.0
06 12:15 NE 3 0.00 Mostly Cloudy SCT024 SCT032 BKN060 82.8 75 78% 90 29.84 0.0
06 11:55 E 7 0.00 Overcast SCT018 BKN025 OVC060 81.3 75.2 82% 88 29.85 0.0
06 11:35 E 3 0.00 Overcast BKN016 BKN025 OVC055 80.8 75 83% 86 29.85 0.0
06 11:15 Calm 0.00 Overcast BKN016 OVC023 80.8 74.7 82% 86 29.84 0.0
06 10:55 Calm 0.00 Overcast OVC014 80.8 75 83% 86 29.83 0.0
06 10:35 SE 3 0.00 Overcast BKN014 OVC021 80.6 75 83% 86 29.82 0.0
06 10:15 E 6 0.00 Overcast OVC014 79.9 74.7 84% 85 29.82 0.0
06 09:55 E 6 0.00 Overcast OVC012 79.5 75 86% 84 29.81 0.0
06 09:35 SE 7 0.00 Overcast OVC012 78.8 74.7 87% 82 29.81 0.0
06 09:15 SE 6 0.00 Overcast OVC010 78.1 75 90% 81 29.8 0.0
06 08:55 SE 7 0.00 Overcast OVC006 77 74.8 93% 78 29.79 0.0
06 08:35 SE 6 0.00 Overcast OVC006 76.6 74.8 94% 77 29.79 0.0
06 08:15 SE 5 0.00 Overcast OVC006 76.1 74.5 95% 76 29.79 0.0
06 07:55 E 3 0.00 Overcast OVC006 75.6 74.3 96% 74 29.79 0.0
06 07:35 E 5 0.00 Overcast OVC006 75.2 74.3 97% 73 29.78 0.0
06 07:15 Calm 0.00 Overcast OVC006 74.8 73.9 97% 29.78 0.0
06 06:55 Calm 0.00 Overcast OVC008 74.7 73.6 76.1 73.4 96% 29.78 0.0
06 06:35 SE 5 0.00 Overcast OVC008 74.7 73.6 96% 29.78 0.0
06 06:15 S 3 0.00 Overcast OVC008 74.5 73.4 96% 29.77 0.0
06 05:55 SE 5 0.00 Overcast OVC008 74.5 73.6 97% 29.77 0.0
06 05:35 S 5 0.00 Overcast OVC010 74.3 73.6 98% 29.77 0.0
06 05:15 S 3 0.00 Overcast OVC012 73.8 73.4 99% 29.77 0.0
06 04:55 S 5 0.00 Overcast OVC016 73.6 73 98% 29.76 0.0
06 04:35 S 3 0.00 NULL NULL 73.4 72.7 98% 29.76 0.0
06 04:15 S 3 0.00 NULL NULL 73.9 73 97% 29.77 0.0
06 03:55 S 5 0.00 Mostly Cloudy BKN018 74.3 73.4 97% 29.76 0.0
06 03:35 S 5 0.00 NULL NULL 74.3 73.4 97% 29.76 0.0
06 03:15 S 5 0.00 NULL NULL 74.3 73.4 97% 29.76 0.0
06 02:55 S 5 0.00 NULL NULL 74.8 73.4 95% 29.76 0.0
06 02:35 SE 5 0.00 NULL NULL 75 73.4 95% 73 29.77 0.0
06 02:15 S 6 0.00 NULL NULL 75.2 73.4 94% 74 29.78 0.0
06 01:55 S 8 0.00 NULL NULL 75.6 73.6 94% 75 29.77 0.0
06 01:35 S 9 G 16 0.00 NULL NULL 75.7 73.8 94% 75 29.78 0.0
06 01:15 S 12 0.00 NULL NULL 75.7 73.9 94% 75 29.78 0.0
06 00:15 SE 9 G 16 0.00 NULL NULL 76.5 73.8 91% 77 29.78 0.0
05 23:55 S 9 G 17 0.00 NULL NULL 76.5 73.8 91% 77 29.78 0.0
05 23:35 SE 12 0.00 NULL NULL 76.5 73.8 91% 77 29.78 0.0
05 23:15 SE 13 G 20 0.00 NULL NULL 76.6 73.8 91% 77 29.77 0.0
05 22:55 SE 14 G 21 0.00 Overcast BKN018 OVC047 77 73.8 90% 78 29.77 0.0
05 22:35 SE 13 0.00 NULL NULL 77.5 73.9 89% 79 29.77 0.0
05 22:15 SE 13 0.00 Overcast BKN025 OVC036 77.9 73.9 88% 80 29.76 0.0
05 21:55 S 9 0.00 Overcast SCT025 OVC034 78.4 73.8 86% 81 29.76 0.0
05 21:35 SE 9 0.00 Overcast OVC034 78.8 73.8 85% 82 29.75 0.0
05 21:15 SE 9 0.00 Overcast OVC036 79.2 73.8 84% 83 29.74 0.0
05 20:55 S 9 0.00 Overcast OVC036 79.7 73.8 82% 84 29.74 0.0
05 20:35 S 8 G 16 0.00 Overcast OVC036 79.9 73.6 81% 84 29.73 0.0
05 20:15 SE 9 0.00 Overcast OVC038 80.1 73.8 81% 85 29.72 0.0
05 19:55 SE 8 0.00 Mostly Cloudy BKN038 80.6 73.9 80% 86 29.71 0.0
05 19:35 SE 9 0.00 Overcast SCT027 OVC036 81.9 73.9 77% 88 29.7 0.0
05 19:15 SE 8 G 16 0.00 Overcast BKN027 OVC038 82.6 74.5 77% 89 29.7 0.0
05 18:55 SE 9 0.00 Partly Cloudy SCT037 83.3 73.9 87.1 79.2 73% 90 29.69 0.0
05 18:35 SE 10 G 17 0.00 Partly Cloudy SCT028 SCT041 84.4 73.8 71% 91 29.69 0.0
05 18:15 S 10 G 18 0.00 Mostly Cloudy SCT034 BKN039 85.1 73.9 69% 93 29.69 0.0
05 17:55 S 9 0.00 Partly Cloudy SCT037 85.8 73.4 67% 93 29.69 0.0
05 17:35 S 7 0.00 Mostly Cloudy SCT032 BKN040 86.2 73.9 67% 94 29.69 0.0
05 17:15 S 12 0.00 Partly Cloudy SCT032 SCT038 86.7 73.6 65% 95 29.69 0.0
05 16:55 S 8 0.00 Mostly Cloudy BKN036 86.5 73.4 65% 94 29.7 0.0
05 16:35 S 13 0.00 Partly Cloudy SCT034 86.4 73.2 65% 94 29.71 0.0
05 16:15 SE 8 G 16 0.00 Partly Cloudy SCT034 86.2 73.6 66% 94 29.71 0.0
05 15:55 S 10 G 18 0.00 Mostly Cloudy BKN032 BKN038 86.7 73.6 65% 95 29.72 0.0
05 15:35 S 9 0.00 Mostly Cloudy SCT029 BKN037 86.2 73.6 66% 94 29.74 0.0
05 15:15 S 10 0.00 Mostly Cloudy SCT027 BKN035 86.4 73.9 67% 94 29.74 0.0
05 14:35 S 9 0.00 Overcast SCT023 BKN029 OVC036 84.2 73.6 71% 91 29.76 0.0
05 14:15 S 8 0.00 Overcast BKN022 OVC034 82.9 73.6 73% 89 29.77 0.0
05 13:55 S 7 0.00 Overcast OVC022 81 73.4 78% 86 29.78 0.0
05 13:35 S 5 0.00 Overcast BKN022 OVC028 80.1 72.9 79% 84 29.79 0.0
05 13:15 S 5 0.00 Overcast SCT018 OVC026 80.2 73 79% 85 29.79 0.0
05 12:55 S 8 0.00 Overcast BKN020 OVC026 79.5 72.9 79.5 70.5 80% 83 29.79 0.0
05 12:35 S 8 0.00 Overcast OVC020 78.8 72.5 81% 82 29.79 0.0
05 12:15 S 8 0.00 Overcast OVC015 78.3 72.7 83% 81 29.79 0.0
05 11:55 S 7 0.00 Overcast OVC015 77.2 72.7 86% 79 29.8 0.0
05 11:35 S 7 0.00 Overcast OVC015 76.6 72 86% 78 29.8 0.0
05 11:15 S 7 0.00 Overcast BKN012 OVC018 75.6 72.5 90% 75 29.8 0.0
05 10:55 S 5 0.00 NULL NULL 75.2 72 90% 75 29.8 0.0
05 10:35 SW 6 0.00 Overcast BKN008 BKN015 OVC020 74.1 72.7 95% 29.8 0.0
05 10:15 S 7 0.00 Overcast OVC006 73.4 72 95% 29.8 0.0
05 09:55 S 7 0.00 Overcast OVC008 73.4 71.6 94% 29.79 0.0
05 09:35 S 9 0.00 Overcast OVC008 73.2 71.2 94% 29.79 0.0
05 09:15 S 9 0.00 Overcast BKN008 OVC012 72.9 71.1 94% 29.79 0.0
05 08:55 S 6 0.00 Overcast OVC008 72.3 70.9 95% 29.79 0.0
05 08:35 S 8 0.00 Overcast BKN008 OVC012 72.1 70.5 95% 29.79 0.0
05 08:15 S 7 0.00 Overcast OVC010 71.8 70 94% 29.79 0.0
05 07:55 S 8 0.00 NULL NULL 71.6 69.8 94% 29.78 0.0
05 07:35 S 7 0.00 NULL NULL 71.1 69.6 95% 29.78 0.0
Date Time (cdt) Wind (mph) Vis. (mi.) Weather Sky Cond. Air Dwpt Max. Min. Relative Humidity Wind Chill (°F) Heat Index (°F) altimeter (in) sea level (mb) 1 hr 3 hr 6 hr
6 hour
Temperature (ºF) Pressure Precipitation (in)